Diagonal, Iowa
Current Conditions -  °F | °C
As of 4:15 PM on Monday 20 Oct 2014 (Local Time) from KCSQ Reporting Station
Clear Clear  
Wind Chill: 68°   Ceiling: Unl
Heat Index: 68°   Visibility: 10mi
Dew Point: 41°   Wind: 14mph
Humidity: 37%   Direction: 330°NNW
Pressure: 30.03"   Gusts: NA
Location:  40.81°N, 94.34°W
Report Text: KCSQ 202115Z AUTO 33012KT 10SM CLR 20/05 A3003 RMK AO2
Loading
Personal Weather Stations






























Interactive Weather Map
Tropical Storm Tracking
New forecast layout! Learn more

10-Day Weather Forecast

Advertisements
Track Severe Weather on mobile